sensor_id;sensor_type;location;lat;lon;timestamp;P1;durP1;ratioP1;P2;durP2;ratioP2
67941;SDS011;54731;42.600;23.476;2022-12-07T00:03:37;28.20;;;12.60;;
67941;SDS011;54731;42.600;23.476;2022-12-07T00:06:04;35.88;;;18.77;;
67941;SDS011;54731;42.600;23.476;2022-12-07T00:08:31;37.83;;;18.92;;
67941;SDS011;54731;42.600;23.476;2022-12-07T00:11:08;21.95;;;11.70;;
67941;SDS011;54731;42.600;23.476;2022-12-07T00:13:36;26.83;;;11.70;;
67941;SDS011;54731;42.600;23.476;2022-12-07T00:16:02;22.88;;;10.63;;
67941;SDS011;54731;42.600;23.476;2022-12-07T00:18:29;18.52;;;9.95;;
67941;SDS011;54731;42.600;23.476;2022-12-07T00:21:02;17.67;;;9.87;;
67941;SDS011;54731;42.600;23.476;2022-12-07T00:23:28;22.92;;;10.27;;
67941;SDS011;54731;42.600;23.476;2022-12-07T00:25:54;20.88;;;10.98;;
67941;SDS011;54731;42.600;23.476;2022-12-07T00:28:19;24.30;;;10.27;;
67941;SDS011;54731;42.600;23.476;2022-12-07T00:30:44;17.73;;;9.40;;
67941;SDS011;54731;42.600;23.476;2022-12-07T00:33:10;19.43;;;9.27;;
67941;SDS011;54731;42.600;23.476;2022-12-07T00:35:35;17.93;;;9.47;;
67941;SDS011;54731;42.600;23.476;2022-12-07T00:38:00;17.33;;;9.47;;
67941;SDS011;54731;42.600;23.476;2022-12-07T00:40:26;14.53;;;7.93;;
67941;SDS011;54731;42.600;23.476;2022-12-07T00:42:51;14.33;;;7.43;;
67941;SDS011;54731;42.600;23.476;2022-12-07T00:45:16;12.50;;;6.82;;
67941;SDS011;54731;42.600;23.476;2022-12-07T00:47:42;14.38;;;7.68;;
67941;SDS011;54731;42.600;23.476;2022-12-07T00:50:07;12.37;;;5.57;;
67941;SDS011;54731;42.600;23.476;2022-12-07T00:52:32;9.17;;;5.03;;
67941;SDS011;54731;42.600;23.476;2022-12-07T00:54:58;11.50;;;5.43;;
67941;SDS011;54731;42.600;23.476;2022-12-07T00:57:23;15.10;;;6.40;;
67941;SDS011;54731;42.600;23.476;2022-12-07T00:59:48;18.17;;;9.60;;
67941;SDS011;54731;42.600;23.476;2022-12-07T01:02:14;18.35;;;9.70;;
67941;SDS011;54731;42.600;23.476;2022-12-07T01:04:39;20.83;;;10.00;;
67941;SDS011;54731;42.600;23.476;2022-12-07T01:07:04;19.17;;;9.00;;
67941;SDS011;54731;42.600;23.476;2022-12-07T01:09:30;16.63;;;9.47;;
67941;SDS011;54731;42.600;23.476;2022-12-07T01:11:55;17.27;;;8.90;;
67941;SDS011;54731;42.600;23.476;2022-12-07T01:14:20;17.33;;;8.93;;
67941;SDS011;54731;42.600;23.476;2022-12-07T01:16:45;17.77;;;10.83;;
67941;SDS011;54731;42.600;23.476;2022-12-07T01:19:11;21.63;;;9.60;;
67941;SDS011;54731;42.600;23.476;2022-12-07T01:21:36;18.93;;;8.23;;
67941;SDS011;54731;42.600;23.476;2022-12-07T01:24:04;24.08;;;11.35;;
67941;SDS011;54731;42.600;23.476;2022-12-07T01:26:30;24.73;;;12.38;;
67941;SDS011;54731;42.600;23.476;2022-12-07T01:28:56;16.63;;;8.63;;
67941;SDS011;54731;42.600;23.476;2022-12-07T01:31:22;15.70;;;7.43;;
67941;SDS011;54731;42.600;23.476;2022-12-07T01:33:49;14.07;;;6.95;;
67941;SDS011;54731;42.600;23.476;2022-12-07T01:38:48;12.85;;;6.47;;
67941;SDS011;54731;42.600;23.476;2022-12-07T01:41:15;15.10;;;5.93;;
67941;SDS011;54731;42.600;23.476;2022-12-07T01:46:44;14.32;;;8.02;;
67941;SDS011;54731;42.600;23.476;2022-12-07T01:49:12;13.60;;;8.15;;
67941;SDS011;54731;42.600;23.476;2022-12-07T01:51:42;12.73;;;6.93;;
67941;SDS011;54731;42.600;23.476;2022-12-07T01:54:09;18.65;;;7.00;;
67941;SDS011;54731;42.600;23.476;2022-12-07T01:56:37;19.65;;;6.93;;
67941;SDS011;54731;42.600;23.476;2022-12-07T01:59:04;15.60;;;7.90;;
67941;SDS011;54731;42.600;23.476;2022-12-07T02:01:30;16.38;;;8.07;;
67941;SDS011;54731;42.600;23.476;2022-12-07T02:03:55;16.40;;;9.20;;
67941;SDS011;54731;42.600;23.476;2022-12-07T02:06:22;16.33;;;9.23;;
67941;SDS011;54731;42.600;23.476;2022-12-07T02:08:49;15.70;;;8.63;;
67941;SDS011;54731;42.600;23.476;2022-12-07T02:11:15;18.05;;;8.95;;
67941;SDS011;54731;42.600;23.476;2022-12-07T02:13:41;23.70;;;9.97;;
67941;SDS011;54731;42.600;23.476;2022-12-07T02:27:32;13.30;;;7.00;;
67941;SDS011;54731;42.600;23.476;2022-12-07T02:30:15;12.90;;;6.40;;
67941;SDS011;54731;42.600;23.476;2022-12-07T02:32:49;14.80;;;6.57;;
67941;SDS011;54731;42.600;23.476;2022-12-07T02:35:40;13.75;;;6.63;;
67941;SDS011;54731;42.600;23.476;2022-12-07T02:40:55;18.20;;;6.33;;
67941;SDS011;54731;42.600;23.476;2022-12-07T02:46:34;10.98;;;5.32;;
67941;SDS011;54731;42.600;23.476;2022-12-07T02:49:04;14.60;;;6.22;;
67941;SDS011;54731;42.600;23.476;2022-12-07T02:51:31;14.65;;;6.57;;
67941;SDS011;54731;42.600;23.476;2022-12-07T02:53:58;15.87;;;5.60;;
67941;SDS011;54731;42.600;23.476;2022-12-07T02:59:22;12.52;;;5.43;;
67941;SDS011;54731;42.600;23.476;2022-12-07T03:02:35;15.27;;;6.18;;
67941;SDS011;54731;42.600;23.476;2022-12-07T03:05:13;13.02;;;6.07;;
67941;SDS011;54731;42.600;23.476;2022-12-07T03:10:34;11.43;;;6.18;;
67941;SDS011;54731;42.600;23.476;2022-12-07T03:16:27;13.90;;;6.18;;
67941;SDS011;54731;42.600;23.476;2022-12-07T03:19:04;12.95;;;5.47;;
67941;SDS011;54731;42.600;23.476;2022-12-07T03:21:36;13.80;;;5.70;;
67941;SDS011;54731;42.600;23.476;2022-12-07T03:24:06;9.32;;;4.68;;
67941;SDS011;54731;42.600;23.476;2022-12-07T03:26:36;9.93;;;4.93;;
67941;SDS011;54731;42.600;23.476;2022-12-07T03:29:07;13.07;;;5.60;;
67941;SDS011;54731;42.600;23.476;2022-12-07T03:31:40;10.43;;;4.95;;
67941;SDS011;54731;42.600;23.476;2022-12-07T03:34:12;10.27;;;5.00;;
67941;SDS011;54731;42.600;23.476;2022-12-07T03:36:55;11.77;;;5.18;;
67941;SDS011;54731;42.600;23.476;2022-12-07T03:39:37;11.48;;;5.38;;
67941;SDS011;54731;42.600;23.476;2022-12-07T03:42:04;9.45;;;5.10;;
67941;SDS011;54731;42.600;23.476;2022-12-07T03:44:31;10.73;;;4.57;;
67941;SDS011;54731;42.600;23.476;2022-12-07T03:47:02;9.47;;;5.43;;
67941;SDS011;54731;42.600;23.476;2022-12-07T03:54:41;21.55;;;9.07;;
67941;SDS011;54731;42.600;23.476;2022-12-07T03:57:12;16.55;;;8.32;;
67941;SDS011;54731;42.600;23.476;2022-12-07T03:59:38;30.00;;;11.70;;
67941;SDS011;54731;42.600;23.476;2022-12-07T04:02:05;29.13;;;13.50;;
67941;SDS011;54731;42.600;23.476;2022-12-07T04:04:31;29.73;;;13.23;;
67941;SDS011;54731;42.600;23.476;2022-12-07T04:06:58;25.50;;;13.18;;
67941;SDS011;54731;42.600;23.476;2022-12-07T04:09:23;33.90;;;13.93;;
67941;SDS011;54731;42.600;23.476;2022-12-07T04:11:48;34.60;;;15.03;;
67941;SDS011;54731;42.600;23.476;2022-12-07T04:14:14;26.53;;;12.03;;
67941;SDS011;54731;42.600;23.476;2022-12-07T04:16:39;19.63;;;8.60;;
67941;SDS011;54731;42.600;23.476;2022-12-07T04:19:04;21.03;;;9.97;;
67941;SDS011;54731;42.600;23.476;2022-12-07T04:21:30;24.73;;;11.33;;
67941;SDS011;54731;42.600;23.476;2022-12-07T04:23:55;22.58;;;8.82;;
67941;SDS011;54731;42.600;23.476;2022-12-07T04:26:20;16.77;;;8.60;;
67941;SDS011;54731;42.600;23.476;2022-12-07T04:28:45;16.20;;;8.43;;
67941;SDS011;54731;42.600;23.476;2022-12-07T04:31:11;19.07;;;10.43;;
67941;SDS011;54731;42.600;23.476;2022-12-07T04:33:36;14.93;;;7.77;;
67941;SDS011;54731;42.600;23.476;2022-12-07T04:36:01;17.43;;;8.27;;
67941;SDS011;54731;42.600;23.476;2022-12-07T04:38:27;25.80;;;9.57;;
67941;SDS011;54731;42.600;23.476;2022-12-07T04:40:52;16.20;;;8.17;;
67941;SDS011;54731;42.600;23.476;2022-12-07T04:43:18;14.07;;;7.17;;
67941;SDS011;54731;42.600;23.476;2022-12-07T04:45:49;11.77;;;6.07;;
67941;SDS011;54731;42.600;23.476;2022-12-07T04:48:14;10.38;;;5.00;;
67941;SDS011;54731;42.600;23.476;2022-12-07T04:50:40;15.13;;;5.30;;
67941;SDS011;54731;42.600;23.476;2022-12-07T04:53:05;12.67;;;5.00;;
67941;SDS011;54731;42.600;23.476;2022-12-07T04:55:30;10.17;;;4.80;;
67941;SDS011;54731;42.600;23.476;2022-12-07T04:57:56;10.10;;;4.87;;
67941;SDS011;54731;42.600;23.476;2022-12-07T05:00:21;9.93;;;5.20;;
67941;SDS011;54731;42.600;23.476;2022-12-07T05:02:46;13.02;;;4.97;;
67941;SDS011;54731;42.600;23.476;2022-12-07T05:05:12;8.40;;;4.47;;
67941;SDS011;54731;42.600;23.476;2022-12-07T05:07:37;11.60;;;5.33;;
67941;SDS011;54731;42.600;23.476;2022-12-07T05:10:03;8.93;;;4.60;;
67941;SDS011;54731;42.600;23.476;2022-12-07T05:12:28;16.35;;;8.95;;
67941;SDS011;54731;42.600;23.476;2022-12-07T05:14:54;23.83;;;10.97;;
67941;SDS011;54731;42.600;23.476;2022-12-07T05:17:19;35.07;;;14.00;;
67941;SDS011;54731;42.600;23.476;2022-12-07T05:19:44;48.63;;;19.80;;
67941;SDS011;54731;42.600;23.476;2022-12-07T05:22:10;40.53;;;16.87;;
67941;SDS011;54731;42.600;23.476;2022-12-07T05:24:35;19.93;;;9.00;;
67941;SDS011;54731;42.600;23.476;2022-12-07T05:27:00;11.57;;;5.87;;
67941;SDS011;54731;42.600;23.476;2022-12-07T05:29:25;16.02;;;7.63;;
67941;SDS011;54731;42.600;23.476;2022-12-07T05:31:51;14.25;;;6.38;;
67941;SDS011;54731;42.600;23.476;2022-12-07T05:34:16;12.93;;;7.20;;
67941;SDS011;54731;42.600;23.476;2022-12-07T05:36:42;14.60;;;6.47;;
67941;SDS011;54731;42.600;23.476;2022-12-07T05:39:07;25.30;;;11.17;;
67941;SDS011;54731;42.600;23.476;2022-12-07T05:41:32;28.47;;;15.40;;
67941;SDS011;54731;42.600;23.476;2022-12-07T05:43:58;23.67;;;12.13;;
67941;SDS011;54731;42.600;23.476;2022-12-07T05:46:23;14.90;;;7.97;;
67941;SDS011;54731;42.600;23.476;2022-12-07T05:48:48;13.63;;;6.73;;
67941;SDS011;54731;42.600;23.476;2022-12-07T05:51:14;12.47;;;6.50;;
67941;SDS011;54731;42.600;23.476;2022-12-07T05:53:39;14.00;;;6.47;;
67941;SDS011;54731;42.600;23.476;2022-12-07T05:56:04;14.40;;;6.27;;
67941;SDS011;54731;42.600;23.476;2022-12-07T05:58:30;12.10;;;6.17;;
67941;SDS011;54731;42.600;23.476;2022-12-07T06:00:55;12.13;;;6.38;;
67941;SDS011;54731;42.600;23.476;2022-12-07T06:03:21;13.20;;;6.43;;
67941;SDS011;54731;42.600;23.476;2022-12-07T06:05:47;14.70;;;7.85;;
67941;SDS011;54731;42.600;23.476;2022-12-07T06:08:12;9.40;;;5.45;;
67941;SDS011;54731;42.600;23.476;2022-12-07T06:10:38;11.13;;;5.63;;
67941;SDS011;54731;42.600;23.476;2022-12-07T06:13:03;11.00;;;6.63;;
67941;SDS011;54731;42.600;23.476;2022-12-07T06:15:28;14.67;;;6.00;;
67941;SDS011;54731;42.600;23.476;2022-12-07T06:17:53;12.73;;;6.33;;
67941;SDS011;54731;42.600;23.476;2022-12-07T06:20:19;11.43;;;5.53;;
67941;SDS011;54731;42.600;23.476;2022-12-07T06:22:44;13.82;;;5.75;;
67941;SDS011;54731;42.600;23.476;2022-12-07T06:25:10;11.68;;;6.05;;
67941;SDS011;54731;42.600;23.476;2022-12-07T06:27:35;14.57;;;6.40;;
67941;SDS011;54731;42.600;23.476;2022-12-07T06:30:00;16.87;;;9.20;;
67941;SDS011;54731;42.600;23.476;2022-12-07T06:32:26;21.67;;;10.63;;
67941;SDS011;54731;42.600;23.476;2022-12-07T06:34:51;28.00;;;11.90;;
67941;SDS011;54731;42.600;23.476;2022-12-07T06:37:16;21.33;;;9.73;;
67941;SDS011;54731;42.600;23.476;2022-12-07T06:39:42;21.88;;;11.05;;
67941;SDS011;54731;42.600;23.476;2022-12-07T06:42:07;18.67;;;10.43;;
67941;SDS011;54731;42.600;23.476;2022-12-07T06:44:32;18.60;;;9.67;;
67941;SDS011;54731;42.600;23.476;2022-12-07T06:46:57;25.87;;;11.57;;
67941;SDS011;54731;42.600;23.476;2022-12-07T06:49:23;19.93;;;10.67;;
67941;SDS011;54731;42.600;23.476;2022-12-07T06:51:48;18.70;;;11.20;;
67941;SDS011;54731;42.600;23.476;2022-12-07T06:54:14;25.97;;;10.33;;
67941;SDS011;54731;42.600;23.476;2022-12-07T06:56:40;16.73;;;9.63;;
67941;SDS011;54731;42.600;23.476;2022-12-07T06:59:05;19.03;;;9.80;;
67941;SDS011;54731;42.600;23.476;2022-12-07T07:01:32;22.80;;;11.57;;
67941;SDS011;54731;42.600;23.476;2022-12-07T07:03:58;27.60;;;13.57;;
67941;SDS011;54731;42.600;23.476;2022-12-07T07:06:24;29.27;;;15.57;;
67941;SDS011;54731;42.600;23.476;2022-12-07T07:08:49;35.07;;;17.77;;
67941;SDS011;54731;42.600;23.476;2022-12-07T07:11:15;34.40;;;16.50;;
67941;SDS011;54731;42.600;23.476;2022-12-07T07:13:40;39.73;;;18.23;;
67941;SDS011;54731;42.600;23.476;2022-12-07T07:16:06;37.70;;;17.20;;
67941;SDS011;54731;42.600;23.476;2022-12-07T07:18:32;37.60;;;16.88;;
67941;SDS011;54731;42.600;23.476;2022-12-07T07:20:57;38.43;;;16.83;;
67941;SDS011;54731;42.600;23.476;2022-12-07T07:23:22;59.23;;;23.33;;
67941;SDS011;54731;42.600;23.476;2022-12-07T07:25:48;45.67;;;21.27;;
67941;SDS011;54731;42.600;23.476;2022-12-07T07:28:14;42.92;;;19.63;;
67941;SDS011;54731;42.600;23.476;2022-12-07T07:30:40;39.65;;;18.48;;
67941;SDS011;54731;42.600;23.476;2022-12-07T07:33:06;36.17;;;17.33;;
67941;SDS011;54731;42.600;23.476;2022-12-07T07:35:32;34.87;;;15.03;;
67941;SDS011;54731;42.600;23.476;2022-12-07T07:37:58;38.13;;;15.20;;
67941;SDS011;54731;42.600;23.476;2022-12-07T07:40:25;33.25;;;15.57;;
67941;SDS011;54731;42.600;23.476;2022-12-07T07:42:51;35.72;;;16.20;;
67941;SDS011;54731;42.600;23.476;2022-12-07T07:45:18;38.23;;;15.33;;
67941;SDS011;54731;42.600;23.476;2022-12-07T07:47:44;55.47;;;23.05;;
67941;SDS011;54731;42.600;23.476;2022-12-07T07:50:09;65.07;;;28.03;;
67941;SDS011;54731;42.600;23.476;2022-12-07T07:52:35;51.35;;;22.60;;
67941;SDS011;54731;42.600;23.476;2022-12-07T07:55:00;47.93;;;21.07;;
67941;SDS011;54731;42.600;23.476;2022-12-07T07:57:25;53.17;;;23.40;;
67941;SDS011;54731;42.600;23.476;2022-12-07T07:59:51;45.70;;;18.77;;
67941;SDS011;54731;42.600;23.476;2022-12-07T08:02:17;34.57;;;16.37;;
67941;SDS011;54731;42.600;23.476;2022-12-07T08:04:44;32.33;;;14.82;;
67941;SDS011;54731;42.600;23.476;2022-12-07T08:07:10;37.47;;;17.63;;
67941;SDS011;54731;42.600;23.476;2022-12-07T08:09:36;50.63;;;20.87;;
67941;SDS011;54731;42.600;23.476;2022-12-07T08:12:01;50.85;;;22.48;;
67941;SDS011;54731;42.600;23.476;2022-12-07T08:14:27;53.23;;;26.67;;
67941;SDS011;54731;42.600;23.476;2022-12-07T08:16:52;35.23;;;17.07;;
67941;SDS011;54731;42.600;23.476;2022-12-07T08:19:18;36.10;;;16.98;;
67941;SDS011;54731;42.600;23.476;2022-12-07T08:21:43;42.37;;;18.33;;
67941;SDS011;54731;42.600;23.476;2022-12-07T08:24:09;37.10;;;17.80;;
67941;SDS011;54731;42.600;23.476;2022-12-07T08:26:34;40.80;;;19.03;;
67941;SDS011;54731;42.600;23.476;2022-12-07T08:28:59;44.43;;;19.20;;
67941;SDS011;54731;42.600;23.476;2022-12-07T08:31:24;48.73;;;22.53;;
67941;SDS011;54731;42.600;23.476;2022-12-07T08:33:50;49.97;;;20.90;;
67941;SDS011;54731;42.600;23.476;2022-12-07T08:36:16;47.40;;;21.67;;
67941;SDS011;54731;42.600;23.476;2022-12-07T08:38:42;45.97;;;21.00;;
67941;SDS011;54731;42.600;23.476;2022-12-07T08:41:07;52.13;;;23.90;;
67941;SDS011;54731;42.600;23.476;2022-12-07T08:43:34;159.25;;;74.35;;
67941;SDS011;54731;42.600;23.476;2022-12-07T08:46:19;53.20;;;27.05;;
67941;SDS011;54731;42.600;23.476;2022-12-07T08:51:28;47.63;;;21.92;;
67941;SDS011;54731;42.600;23.476;2022-12-07T08:53:54;45.53;;;21.10;;
67941;SDS011;54731;42.600;23.476;2022-12-07T08:56:21;36.63;;;19.02;;
67941;SDS011;54731;42.600;23.476;2022-12-07T08:58:46;46.03;;;22.53;;
67941;SDS011;54731;42.600;23.476;2022-12-07T09:01:12;56.47;;;32.92;;
67941;SDS011;54731;42.600;23.476;2022-12-07T09:03:38;40.90;;;20.60;;
67941;SDS011;54731;42.600;23.476;2022-12-07T09:06:03;59.57;;;26.60;;
67941;SDS011;54731;42.600;23.476;2022-12-07T09:08:33;43.53;;;21.63;;
67941;SDS011;54731;42.600;23.476;2022-12-07T09:11:03;42.45;;;21.77;;
67941;SDS011;54731;42.600;23.476;2022-12-07T09:13:28;47.30;;;22.40;;
67941;SDS011;54731;42.600;23.476;2022-12-07T09:15:53;43.10;;;25.57;;
67941;SDS011;54731;42.600;23.476;2022-12-07T09:18:19;57.07;;;27.73;;
67941;SDS011;54731;42.600;23.476;2022-12-07T09:20:44;46.77;;;22.87;;
67941;SDS011;54731;42.600;23.476;2022-12-07T09:23:09;47.43;;;22.93;;
67941;SDS011;54731;42.600;23.476;2022-12-07T09:25:35;58.90;;;27.37;;
67941;SDS011;54731;42.600;23.476;2022-12-07T09:28:00;55.35;;;27.27;;
67941;SDS011;54731;42.600;23.476;2022-12-07T09:30:26;59.83;;;29.23;;
67941;SDS011;54731;42.600;23.476;2022-12-07T09:32:52;68.65;;;30.77;;
67941;SDS011;54731;42.600;23.476;2022-12-07T09:35:18;57.13;;;26.73;;
67941;SDS011;54731;42.600;23.476;2022-12-07T09:37:44;61.67;;;27.67;;
67941;SDS011;54731;42.600;23.476;2022-12-07T09:40:09;51.30;;;26.07;;
67941;SDS011;54731;42.600;23.476;2022-12-07T09:42:36;53.27;;;27.53;;
67941;SDS011;54731;42.600;23.476;2022-12-07T09:45:10;51.35;;;27.05;;
67941;SDS011;54731;42.600;23.476;2022-12-07T09:47:39;60.50;;;27.65;;
67941;SDS011;54731;42.600;23.476;2022-12-07T09:50:06;62.43;;;27.43;;
67941;SDS011;54731;42.600;23.476;2022-12-07T09:52:37;52.45;;;25.60;;
67941;SDS011;54731;42.600;23.476;2022-12-07T09:55:03;38.23;;;20.30;;
67941;SDS011;54731;42.600;23.476;2022-12-07T09:57:33;44.78;;;22.13;;
67941;SDS011;54731;42.600;23.476;2022-12-07T10:00:00;41.60;;;20.33;;
67941;SDS011;54731;42.600;23.476;2022-12-07T10:02:39;42.92;;;21.90;;
67941;SDS011;54731;42.600;23.476;2022-12-07T10:05:06;38.45;;;20.27;;
67941;SDS011;54731;42.600;23.476;2022-12-07T10:07:37;38.50;;;20.85;;
67941;SDS011;54731;42.600;23.476;2022-12-07T10:10:06;42.70;;;20.93;;
67941;SDS011;54731;42.600;23.476;2022-12-07T10:23:28;42.00;;;20.40;;
67941;SDS011;54731;42.600;23.476;2022-12-07T10:25:53;40.03;;;19.63;;
67941;SDS011;54731;42.600;23.476;2022-12-07T10:28:19;42.30;;;22.27;;
67941;SDS011;54731;42.600;23.476;2022-12-07T10:30:51;41.03;;;19.83;;
67941;SDS011;54731;42.600;23.476;2022-12-07T10:36:15;27.52;;;15.27;;
67941;SDS011;54731;42.600;23.476;2022-12-07T10:38:47;39.20;;;18.45;;
67941;SDS011;54731;42.600;23.476;2022-12-07T10:41:14;52.83;;;27.60;;
67941;SDS011;54731;42.600;23.476;2022-12-07T10:43:47;43.72;;;21.60;;
67941;SDS011;54731;42.600;23.476;2022-12-07T10:54:52;32.13;;;15.50;;
67941;SDS011;54731;42.600;23.476;2022-12-07T11:00:23;40.47;;;18.47;;
67941;SDS011;54731;42.600;23.476;2022-12-07T11:02:53;33.70;;;16.80;;
67941;SDS011;54731;42.600;23.476;2022-12-07T11:08:13;36.45;;;17.13;;
67941;SDS011;54731;42.600;23.476;2022-12-07T11:33:49;34.45;;;17.35;;
67941;SDS011;54731;42.600;23.476;2022-12-07T11:36:31;42.38;;;18.10;;
67941;SDS011;54731;42.600;23.476;2022-12-07T11:39:35;39.97;;;17.73;;
67941;SDS011;54731;42.600;23.476;2022-12-07T11:42:01;35.17;;;16.85;;
67941;SDS011;54731;42.600;23.476;2022-12-07T11:53:23;48.37;;;21.77;;
67941;SDS011;54731;42.600;23.476;2022-12-07T11:56:35;42.35;;;20.63;;
67941;SDS011;54731;42.600;23.476;2022-12-07T11:59:02;44.80;;;21.48;;
67941;SDS011;54731;42.600;23.476;2022-12-07T12:07:30;48.80;;;22.30;;
67941;SDS011;54731;42.600;23.476;2022-12-07T12:09:58;46.03;;;23.27;;
67941;SDS011;54731;42.600;23.476;2022-12-07T12:12:33;32.83;;;17.73;;
67941;SDS011;54731;42.600;23.476;2022-12-07T12:21:14;34.33;;;16.63;;
67941;SDS011;54731;42.600;23.476;2022-12-07T12:23:48;35.03;;;16.65;;
67941;SDS011;54731;42.600;23.476;2022-12-07T12:26:20;32.95;;;16.77;;
67941;SDS011;54731;42.600;23.476;2022-12-07T12:28:59;36.38;;;20.35;;
67941;SDS011;54731;42.600;23.476;2022-12-07T12:33:56;56.53;;;25.67;;
67941;SDS011;54731;42.600;23.476;2022-12-07T12:44:03;52.85;;;25.45;;
67941;SDS011;54731;42.600;23.476;2022-12-07T12:54:14;51.38;;;24.02;;
67941;SDS011;54731;42.600;23.476;2022-12-07T13:01:46;66.63;;;29.33;;
67941;SDS011;54731;42.600;23.476;2022-12-07T13:06:52;62.67;;;29.40;;
67941;SDS011;54731;42.600;23.476;2022-12-07T13:09:22;49.70;;;21.80;;
67941;SDS011;54731;42.600;23.476;2022-12-07T13:11:55;43.22;;;19.83;;
67941;SDS011;54731;42.600;23.476;2022-12-07T13:17:02;33.25;;;18.23;;
67941;SDS011;54731;42.600;23.476;2022-12-07T13:24:57;33.65;;;17.38;;
67941;SDS011;54731;42.600;23.476;2022-12-07T13:27:27;33.95;;;15.70;;
67941;SDS011;54731;42.600;23.476;2022-12-07T13:29:52;36.13;;;17.08;;
67941;SDS011;54731;42.600;23.476;2022-12-07T13:32:24;40.73;;;19.47;;
67941;SDS011;54731;42.600;23.476;2022-12-07T13:34:51;41.40;;;19.13;;
67941;SDS011;54731;42.600;23.476;2022-12-07T13:39:46;44.03;;;23.30;;
67941;SDS011;54731;42.600;23.476;2022-12-07T13:44:44;199.20;;;84.35;;
67941;SDS011;54731;42.600;23.476;2022-12-07T13:47:12;1482.60;;;618.70;;
67941;SDS011;54731;42.600;23.476;2022-12-07T13:49:44;1211.72;;;536.20;;
67941;SDS011;54731;42.600;23.476;2022-12-07T13:52:20;728.75;;;357.08;;
67941;SDS011;54731;42.600;23.476;2022-12-07T13:55:00;151.27;;;63.50;;
67941;SDS011;54731;42.600;23.476;2022-12-07T13:57:36;340.83;;;156.52;;
67941;SDS011;54731;42.600;23.476;2022-12-07T14:00:06;419.10;;;214.70;;
67941;SDS011;54731;42.600;23.476;2022-12-07T14:02:57;290.90;;;140.80;;
67941;SDS011;54731;42.600;23.476;2022-12-07T14:05:32;173.25;;;90.03;;
67941;SDS011;54731;42.600;23.476;2022-12-07T14:08:03;126.75;;;74.43;;
67941;SDS011;54731;42.600;23.476;2022-12-07T14:15:54;30.35;;;15.30;;
67941;SDS011;54731;42.600;23.476;2022-12-07T14:18:35;24.73;;;13.48;;
67941;SDS011;54731;42.600;23.476;2022-12-07T14:21:03;44.07;;;31.03;;
67941;SDS011;54731;42.600;23.476;2022-12-07T14:23:35;47.13;;;25.20;;
67941;SDS011;54731;42.600;23.476;2022-12-07T14:26:10;56.13;;;27.40;;
67941;SDS011;54731;42.600;23.476;2022-12-07T14:28:38;33.33;;;19.25;;
67941;SDS011;54731;42.600;23.476;2022-12-07T14:31:08;57.22;;;28.30;;
67941;SDS011;54731;42.600;23.476;2022-12-07T14:33:40;52.87;;;29.30;;
67941;SDS011;54731;42.600;23.476;2022-12-07T14:36:08;41.35;;;19.13;;
67941;SDS011;54731;42.600;23.476;2022-12-07T14:38:38;29.02;;;18.52;;
67941;SDS011;54731;42.600;23.476;2022-12-07T14:41:06;31.08;;;19.38;;
67941;SDS011;54731;42.600;23.476;2022-12-07T14:43:39;42.25;;;23.17;;
67941;SDS011;54731;42.600;23.476;2022-12-07T14:46:04;146.43;;;59.57;;
67941;SDS011;54731;42.600;23.476;2022-12-07T14:48:29;95.83;;;42.00;;
67941;SDS011;54731;42.600;23.476;2022-12-07T14:50:55;76.97;;;42.23;;
67941;SDS011;54731;42.600;23.476;2022-12-07T14:53:21;49.17;;;24.43;;
67941;SDS011;54731;42.600;23.476;2022-12-07T14:55:53;71.15;;;41.10;;
67941;SDS011;54731;42.600;23.476;2022-12-07T14:58:19;66.37;;;38.13;;
67941;SDS011;54731;42.600;23.476;2022-12-07T15:00:44;37.57;;;22.57;;
67941;SDS011;54731;42.600;23.476;2022-12-07T15:03:10;31.33;;;13.23;;
67941;SDS011;54731;42.600;23.476;2022-12-07T15:05:36;31.23;;;16.93;;
67941;SDS011;54731;42.600;23.476;2022-12-07T15:08:02;49.17;;;21.90;;
67941;SDS011;54731;42.600;23.476;2022-12-07T15:10:29;22.40;;;11.98;;
67941;SDS011;54731;42.600;23.476;2022-12-07T15:12:56;35.83;;;24.00;;
67941;SDS011;54731;42.600;23.476;2022-12-07T15:15:25;34.80;;;20.23;;
67941;SDS011;54731;42.600;23.476;2022-12-07T15:17:51;29.77;;;16.43;;
67941;SDS011;54731;42.600;23.476;2022-12-07T15:20:16;21.97;;;13.00;;
67941;SDS011;54731;42.600;23.476;2022-12-07T15:22:41;26.10;;;13.35;;
67941;SDS011;54731;42.600;23.476;2022-12-07T15:25:07;21.30;;;9.98;;
67941;SDS011;54731;42.600;23.476;2022-12-07T15:27:33;30.83;;;16.87;;
67941;SDS011;54731;42.600;23.476;2022-12-07T15:29:59;28.27;;;14.52;;
67941;SDS011;54731;42.600;23.476;2022-12-07T15:32:24;35.13;;;20.63;;
67941;SDS011;54731;42.600;23.476;2022-12-07T15:34:49;26.73;;;14.87;;
67941;SDS011;54731;42.600;23.476;2022-12-07T15:37:15;22.30;;;14.50;;
67941;SDS011;54731;42.600;23.476;2022-12-07T15:39:40;21.87;;;11.87;;
67941;SDS011;54731;42.600;23.476;2022-12-07T15:42:06;24.88;;;16.13;;
67941;SDS011;54731;42.600;23.476;2022-12-07T15:44:31;16.63;;;11.23;;
67941;SDS011;54731;42.600;23.476;2022-12-07T15:46:57;21.83;;;15.57;;
67941;SDS011;54731;42.600;23.476;2022-12-07T15:49:22;31.70;;;18.77;;
67941;SDS011;54731;42.600;23.476;2022-12-07T15:51:47;17.63;;;9.90;;
67941;SDS011;54731;42.600;23.476;2022-12-07T15:54:18;27.07;;;13.97;;
67941;SDS011;54731;42.600;23.476;2022-12-07T15:56:43;44.88;;;20.25;;
67941;SDS011;54731;42.600;23.476;2022-12-07T15:59:09;18.20;;;8.20;;
67941;SDS011;54731;42.600;23.476;2022-12-07T16:01:34;13.53;;;6.90;;
67941;SDS011;54731;42.600;23.476;2022-12-07T16:03:59;27.55;;;11.02;;
67941;SDS011;54731;42.600;23.476;2022-12-07T16:06:24;49.58;;;15.38;;
67941;SDS011;54731;42.600;23.476;2022-12-07T16:08:50;247.77;;;102.07;;
67941;SDS011;54731;42.600;23.476;2022-12-07T16:11:15;56.70;;;20.00;;
67941;SDS011;54731;42.600;23.476;2022-12-07T16:13:40;76.70;;;25.87;;
67941;SDS011;54731;42.600;23.476;2022-12-07T16:16:07;46.63;;;20.77;;
67941;SDS011;54731;42.600;23.476;2022-12-07T16:18:36;246.98;;;185.10;;
67941;SDS011;54731;42.600;23.476;2022-12-07T16:21:02;93.63;;;66.13;;
67941;SDS011;54731;42.600;23.476;2022-12-07T16:23:28;30.60;;;17.27;;
67941;SDS011;54731;42.600;23.476;2022-12-07T16:25:53;643.73;;;504.43;;
67941;SDS011;54731;42.600;23.476;2022-12-07T16:28:18;1001.93;;;755.70;;
67941;SDS011;54731;42.600;23.476;2022-12-07T16:30:44;125.83;;;84.97;;
67941;SDS011;54731;42.600;23.476;2022-12-07T16:33:09;43.63;;;27.90;;
67941;SDS011;54731;42.600;23.476;2022-12-07T16:35:40;81.43;;;52.42;;
67941;SDS011;54731;42.600;23.476;2022-12-07T16:38:06;49.17;;;38.30;;
67941;SDS011;54731;42.600;23.476;2022-12-07T16:40:31;98.05;;;46.35;;
67941;SDS011;54731;42.600;23.476;2022-12-07T16:42:57;194.80;;;67.33;;
67941;SDS011;54731;42.600;23.476;2022-12-07T16:45:22;113.97;;;49.47;;
67941;SDS011;54731;42.600;23.476;2022-12-07T16:47:47;58.83;;;26.57;;
67941;SDS011;54731;42.600;23.476;2022-12-07T16:50:13;103.87;;;38.70;;
67941;SDS011;54731;42.600;23.476;2022-12-07T16:52:38;260.37;;;75.57;;
67941;SDS011;54731;42.600;23.476;2022-12-07T16:55:03;41.03;;;13.15;;